sensor_id;sensor_type;location;lat;lon;timestamp;pressure;altitude;pressure_sealevel;temperature;humidity
53089;BME280;38968;47.696;17.540;2023-02-28T00:04:13;10136280.0;;;5.68;47.41309
53089;BME280;38968;47.696;17.540;2023-02-28T00:09:13;10137190.0;;;5.51;46.9502
53089;BME280;38968;47.696;17.540;2023-02-28T00:14:13;10137530.0;;;5.48;47.16309
53089;BME280;38968;47.696;17.540;2023-02-28T00:19:13;10137680.0;;;5.72;46.10938
53089;BME280;38968;47.696;17.540;2023-02-28T00:24:13;10138060.0;;;5.87;44.89648
53089;BME280;38968;47.696;17.540;2023-02-28T00:29:13;10138410.0;;;5.89;44.34082
53089;BME280;38968;47.696;17.540;2023-02-28T00:34:13;10138570.0;;;5.84;43.89063
53089;BME280;38968;47.696;17.540;2023-02-28T00:39:13;10139220.0;;;5.69;44.01172
53089;BME280;38968;47.696;17.540;2023-02-28T00:44:13;10139840.0;;;5.71;43.7168
53089;BME280;38968;47.696;17.540;2023-02-28T00:49:13;10139760.0;;;5.75;43.44922
53089;BME280;38968;47.696;17.540;2023-02-28T00:54:13;10139760.0;;;5.43;44.44043
53089;BME280;38968;47.696;17.540;2023-02-28T00:59:14;10141160.0;;;5.48;44.08203
53089;BME280;38968;47.696;17.540;2023-02-28T01:04:13;10141050.0;;;5.1;45.05371
53089;BME280;38968;47.696;17.540;2023-02-28T01:09:14;10141610.0;;;5.22;44.87402
53089;BME280;38968;47.696;17.540;2023-02-28T01:14:15;10141700.0;;;4.96;45.83398
53089;BME280;38968;47.696;17.540;2023-02-28T01:19:13;10142510.0;;;5.05;45.48047
53089;BME280;38968;47.696;17.540;2023-02-28T01:24:14;10142700.0;;;5.12;45.20508
53089;BME280;38968;47.696;17.540;2023-02-28T01:29:13;10142510.0;;;5.05;45.17383
53089;BME280;38968;47.696;17.540;2023-02-28T01:34:13;10143200.0;;;5.06;45.25391
53089;BME280;38968;47.696;17.540;2023-02-28T01:39:13;10142120.0;;;4.92;45.5127
53089;BME280;38968;47.696;17.540;2023-02-28T01:49:15;10143380.0;;;5.08;44.83594
53089;BME280;38968;47.696;17.540;2023-02-28T01:54:15;10142950.0;;;5.07;44.79004
53089;BME280;38968;47.696;17.540;2023-02-28T01:59:15;10143100.0;;;5.01;44.71582
53089;BME280;38968;47.696;17.540;2023-02-28T02:04:13;10142750.0;;;5.02;44.86426
53089;BME280;38968;47.696;17.540;2023-02-28T02:09:13;10143270.0;;;5;44.95313
53089;BME280;38968;47.696;17.540;2023-02-28T02:14:28;10143030.0;;;5.06;44.7666
53089;BME280;38968;47.696;17.540;2023-02-28T02:34:47;10144110.0;;;4.63;45.39063
53089;BME280;38968;47.696;17.540;2023-02-28T02:49:19;10144210.0;;;4.4;46.12695
53089;BME280;38968;47.696;17.540;2023-02-28T02:54:33;10144840.0;;;4.48;46.31641
53089;BME280;38968;47.696;17.540;2023-02-28T02:59:16;10143600.0;;;4.66;45.76953
53089;BME280;38968;47.696;17.540;2023-02-28T03:04:19;10144800.0;;;4.63;45.76465
53089;BME280;38968;47.696;17.540;2023-02-28T03:09:13;10144870.0;;;4.57;45.66797
53089;BME280;38968;47.696;17.540;2023-02-28T03:14:45;10144740.0;;;4.73;45.62793
53089;BME280;38968;47.696;17.540;2023-02-28T03:24:18;10145250.0;;;4.71;45.77441
53089;BME280;38968;47.696;17.540;2023-02-28T03:34:33;10144780.0;;;4.87;45.5625
53089;BME280;38968;47.696;17.540;2023-02-28T03:39:18;10145260.0;;;5;45.31543
53089;BME280;38968;47.696;17.540;2023-02-28T03:44:24;10145690.0;;;4.72;45.91113
53089;BME280;38968;47.696;17.540;2023-02-28T03:49:22;10145240.0;;;4.95;45.39063
53089;BME280;38968;47.696;17.540;2023-02-28T03:54:18;10144880.0;;;4.92;45.59082
53089;BME280;38968;47.696;17.540;2023-02-28T03:59:15;10144440.0;;;4.88;45.75781
53089;BME280;38968;47.696;17.540;2023-02-28T04:04:14;10144410.0;;;5.07;45.2334
53089;BME280;38968;47.696;17.540;2023-02-28T04:09:14;10145640.0;;;5.13;45.5459
53089;BME280;38968;47.696;17.540;2023-02-28T04:14:13;10145370.0;;;5.08;45.7666
53089;BME280;38968;47.696;17.540;2023-02-28T04:19:14;10146000.0;;;5.16;45.61719
53089;BME280;38968;47.696;17.540;2023-02-28T04:24:21;10146110.0;;;5.24;45.5918
53089;BME280;38968;47.696;17.540;2023-02-28T04:29:17;10145800.0;;;5.07;45.75586
53089;BME280;38968;47.696;17.540;2023-02-28T04:34:13;10146320.0;;;4.8;47.1582
53089;BME280;38968;47.696;17.540;2023-02-28T04:39:13;10146750.0;;;4.78;47.15527
53089;BME280;38968;47.696;17.540;2023-02-28T04:44:13;10147240.0;;;4.72;47.13672
53089;BME280;38968;47.696;17.540;2023-02-28T04:49:14;10147020.0;;;4.83;47.03613
53089;BME280;38968;47.696;17.540;2023-02-28T04:54:13;10147300.0;;;4.89;47.15527
53089;BME280;38968;47.696;17.540;2023-02-28T04:59:13;10146870.0;;;4.91;46.5332
53089;BME280;38968;47.696;17.540;2023-02-28T05:04:14;10147250.0;;;5.04;46.45605
53089;BME280;38968;47.696;17.540;2023-02-28T05:09:13;10146940.0;;;5.13;46.53418
53089;BME280;38968;47.696;17.540;2023-02-28T05:14:14;10147170.0;;;5.03;46.55859
53089;BME280;38968;47.696;17.540;2023-02-28T05:19:13;10147890.0;;;5.14;46.4668
53089;BME280;38968;47.696;17.540;2023-02-28T05:24:13;10148350.0;;;5.22;46.32813
53089;BME280;38968;47.696;17.540;2023-02-28T05:29:13;10148490.0;;;5.13;46.52246
53089;BME280;38968;47.696;17.540;2023-02-28T05:34:13;10149680.0;;;5.06;46.79883
53089;BME280;38968;47.696;17.540;2023-02-28T05:39:13;10149890.0;;;4.89;46.98438
53089;BME280;38968;47.696;17.540;2023-02-28T05:44:13;10149770.0;;;4.78;47.41602
53089;BME280;38968;47.696;17.540;2023-02-28T05:49:13;10150620.0;;;4.5;47.75879
53089;BME280;38968;47.696;17.540;2023-02-28T05:54:13;10150990.0;;;4.57;48.13965
53089;BME280;38968;47.696;17.540;2023-02-28T05:59:13;10150190.0;;;4.47;48.36816
53089;BME280;38968;47.696;17.540;2023-02-28T06:04:15;10150560.0;;;4.82;47.33008
53089;BME280;38968;47.696;17.540;2023-02-28T06:09:14;10151260.0;;;4.87;47.15234
53089;BME280;38968;47.696;17.540;2023-02-28T06:14:18;10151470.0;;;4.97;46.94824
53089;BME280;38968;47.696;17.540;2023-02-28T06:19:13;10152440.0;;;4.75;47.31055
53089;BME280;38968;47.696;17.540;2023-02-28T06:24:13;10152300.0;;;5.14;46.58008
53089;BME280;38968;47.696;17.540;2023-02-28T06:29:13;10152720.0;;;5.13;46.65918
53089;BME280;38968;47.696;17.540;2023-02-28T06:34:13;10152270.0;;;5.33;46.7373
53089;BME280;38968;47.696;17.540;2023-02-28T06:39:14;10153240.0;;;5.12;46.75977
53089;BME280;38968;47.696;17.540;2023-02-28T06:44:15;10153510.0;;;5.43;46.62305
53089;BME280;38968;47.696;17.540;2023-02-28T06:49:14;10153670.0;;;5.7;46.2207
53089;BME280;38968;47.696;17.540;2023-02-28T06:54:13;10153190.0;;;5.52;46.34863
53089;BME280;38968;47.696;17.540;2023-02-28T06:59:13;10152510.0;;;5.87;45.5332
53089;BME280;38968;47.696;17.540;2023-02-28T07:04:13;10152800.0;;;6.29;44.55273
53089;BME280;38968;47.696;17.540;2023-02-28T07:09:13;10153450.0;;;6.47;43.66895
53089;BME280;38968;47.696;17.540;2023-02-28T07:14:13;10154030.0;;;6.71;43.27148
53089;BME280;38968;47.696;17.540;2023-02-28T07:19:13;10153200.0;;;6.87;42.38574
53089;BME280;38968;47.696;17.540;2023-02-28T07:24:13;10153690.0;;;6.74;43.21777
53089;BME280;38968;47.696;17.540;2023-02-28T07:29:14;10155170.0;;;7.14;41.56641
53089;BME280;38968;47.696;17.540;2023-02-28T07:34:14;10154180.0;;;7.37;40.95996
53089;BME280;38968;47.696;17.540;2023-02-28T07:39:13;10155290.0;;;7.66;39.46484
53089;BME280;38968;47.696;17.540;2023-02-28T07:44:13;10154020.0;;;7.84;38.97754
53089;BME280;38968;47.696;17.540;2023-02-28T07:49:13;10154360.0;;;7.77;38.78809
53089;BME280;38968;47.696;17.540;2023-02-28T07:54:14;10154710.0;;;7.82;38.74707
53089;BME280;38968;47.696;17.540;2023-02-28T07:59:13;10155270.0;;;7.57;39.26172
53089;BME280;38968;47.696;17.540;2023-02-28T08:04:13;10154930.0;;;7.59;39.10352
53089;BME280;38968;47.696;17.540;2023-02-28T08:09:13;10155390.0;;;7.74;38.6123
53089;BME280;38968;47.696;17.540;2023-02-28T08:14:13;10155710.0;;;8.04;37.80371
53089;BME280;38968;47.696;17.540;2023-02-28T08:19:13;10156420.0;;;8.1;37.24707
53089;BME280;38968;47.696;17.540;2023-02-28T08:24:13;10156510.0;;;8.62;36.22363
53089;BME280;38968;47.696;17.540;2023-02-28T08:29:13;10155960.0;;;9.6;34.09375
53089;BME280;38968;47.696;17.540;2023-02-28T08:34:15;10155680.0;;;11.08;31.41211
53089;BME280;38968;47.696;17.540;2023-02-28T08:39:13;10155130.0;;;12.84;29.9248
53089;BME280;38968;47.696;17.540;2023-02-28T08:44:13;10155100.0;;;13.93;27.86621
53089;BME280;38968;47.696;17.540;2023-02-28T08:49:13;10154910.0;;;14.23;25.94824
53089;BME280;38968;47.696;17.540;2023-02-28T08:54:13;10155660.0;;;12.69;28.27539
53089;BME280;38968;47.696;17.540;2023-02-28T08:59:14;10155290.0;;;11.85;28.83594
53089;BME280;38968;47.696;17.540;2023-02-28T09:04:13;10155430.0;;;11.24;29.0625
53089;BME280;38968;47.696;17.540;2023-02-28T09:09:13;10154990.0;;;11.17;29.9834
53089;BME280;38968;47.696;17.540;2023-02-28T09:14:13;10155730.0;;;10.62;30.17676
53089;BME280;38968;47.696;17.540;2023-02-28T09:19:13;10155730.0;;;10.62;31.35645
53089;BME280;38968;47.696;17.540;2023-02-28T09:24:13;10155220.0;;;10.7;31.25684
53089;BME280;38968;47.696;17.540;2023-02-28T09:29:13;10155370.0;;;10.5;31.48535
53089;BME280;38968;47.696;17.540;2023-02-28T09:34:13;10155480.0;;;10.7;31.37305
53089;BME280;38968;47.696;17.540;2023-02-28T09:39:13;10156080.0;;;10.61;30.64941
53089;BME280;38968;47.696;17.540;2023-02-28T09:49:18;10155470.0;;;10.56;31.32813
53089;BME280;38968;47.696;17.540;2023-02-28T09:54:16;10155390.0;;;10.73;31.21289
53089;BME280;38968;47.696;17.540;2023-02-28T09:59:20;10155130.0;;;9.86;32.17676
53089;BME280;38968;47.696;17.540;2023-02-28T10:14:24;10156150.0;;;9.69;32.82227
53089;BME280;38968;47.696;17.540;2023-02-28T10:19:22;10155960.0;;;10.29;31.52832
53089;BME280;38968;47.696;17.540;2023-02-28T10:24:30;10154940.0;;;10.58;31.90723
53089;BME280;38968;47.696;17.540;2023-02-28T10:29:13;10155120.0;;;9.77;32.27441
53089;BME280;38968;47.696;17.540;2023-02-28T10:34:13;10154790.0;;;10.81;31.90137
53089;BME280;38968;47.696;17.540;2023-02-28T10:39:40;10153850.0;;;11.12;31.6582
53089;BME280;38968;47.696;17.540;2023-02-28T10:44:23;10153050.0;;;10.01;32.41895
53089;BME280;38968;47.696;17.540;2023-02-28T10:49:17;10153840.0;;;9.34;34.17773
53089;BME280;38968;47.696;17.540;2023-02-28T10:54:15;10151410.0;;;11.09;31.35449
53089;BME280;38968;47.696;17.540;2023-02-28T10:59:29;10152500.0;;;10.6;31.28516
53089;BME280;38968;47.696;17.540;2023-02-28T11:09:22;10151890.0;;;10.57;31.72168
53089;BME280;38968;47.696;17.540;2023-02-28T11:14:27;10151160.0;;;11.29;31.02148
53089;BME280;38968;47.696;17.540;2023-02-28T11:19:20;10150130.0;;;11.68;30.01855
53089;BME280;38968;47.696;17.540;2023-02-28T11:24:27;10149530.0;;;12.06;29.62793
53089;BME280;38968;47.696;17.540;2023-02-28T11:29:21;10150320.0;;;12.34;28.79785
53089;BME280;38968;47.696;17.540;2023-02-28T11:34:24;10149000.0;;;12.03;28.12891
53089;BME280;38968;47.696;17.540;2023-02-28T11:39:14;10149070.0;;;11.45;28.76367
53089;BME280;38968;47.696;17.540;2023-02-28T12:09:26;10145430.0;;;14.47;26.90918
53089;BME280;38968;47.696;17.540;2023-02-28T12:14:33;10144940.0;;;17.67;23.88086
53089;BME280;38968;47.696;17.540;2023-02-28T12:34:19;10141890.0;;;20.11;20.47266
53089;BME280;38968;47.696;17.540;2023-02-28T12:44:18;10141100.0;;;20.86;19.89063
53089;BME280;38968;47.696;17.540;2023-02-28T12:54:16;10140990.0;;;17.99;22.5791
53089;BME280;38968;47.696;17.540;2023-02-28T12:59:30;10139150.0;;;19.53;20.45801
53089;BME280;38968;47.696;17.540;2023-02-28T13:09:17;10138530.0;;;17.12;22.19434
53089;BME280;38968;47.696;17.540;2023-02-28T13:19:16;10137040.0;;;17.51;22.95508
53089;BME280;38968;47.696;17.540;2023-02-28T13:34:14;10135930.0;;;19.93;18.34473
53089;BME280;38968;47.696;17.540;2023-02-28T13:44:21;10135680.0;;;18.38;21.25391
53089;BME280;38968;47.696;17.540;2023-02-28T14:09:24;10135080.0;;;20.35;18.86035
53089;BME280;38968;47.696;17.540;2023-02-28T14:19:26;10134670.0;;;20.51;18.5459
53089;BME280;38968;47.696;17.540;2023-02-28T14:24:39;10134500.0;;;20.99;17.72266
53089;BME280;38968;47.696;17.540;2023-02-28T14:39:21;10135040.0;;;18.78;19.93945
53089;BME280;38968;47.696;17.540;2023-02-28T14:44:21;10134000.0;;;18.4;20.19336
53089;BME280;38968;47.696;17.540;2023-02-28T14:54:15;10133970.0;;;19.99;18.78516
53089;BME280;38968;47.696;17.540;2023-02-28T14:59:30;10135320.0;;;15.93;23.01367
53089;BME280;38968;47.696;17.540;2023-02-28T15:04:18;10135040.0;;;16.99;21.21094
53089;BME280;38968;47.696;17.540;2023-02-28T15:09:18;10134790.0;;;15.91;22.75488
53089;BME280;38968;47.696;17.540;2023-02-28T15:14:18;10134860.0;;;14.76;23.99316
53089;BME280;38968;47.696;17.540;2023-02-28T15:19:20;10135340.0;;;13.21;26.00391
53089;BME280;38968;47.696;17.540;2023-02-28T15:29:16;10136400.0;;;12.98;26.74707
53089;BME280;38968;47.696;17.540;2023-02-28T15:34:22;10136680.0;;;12.4;27.75684
53089;BME280;38968;47.696;17.540;2023-02-28T15:39:24;10136760.0;;;11.21;29.91699
53089;BME280;38968;47.696;17.540;2023-02-28T15:44:22;10135540.0;;;11.78;29.16699
53089;BME280;38968;47.696;17.540;2023-02-28T15:49:18;10135890.0;;;11.54;29.55762
53089;BME280;38968;47.696;17.540;2023-02-28T15:54:16;10135710.0;;;11.35;30.41309
53089;BME280;38968;47.696;17.540;2023-02-28T15:59:18;10135490.0;;;10.33;31.46191
53089;BME280;38968;47.696;17.540;2023-02-28T16:04:18;10135390.0;;;10.18;32.0166
53089;BME280;38968;47.696;17.540;2023-02-28T16:09:15;10135660.0;;;10.37;32.21484
53089;BME280;38968;47.696;17.540;2023-02-28T16:14:21;10135990.0;;;10.13;32.83203
53089;BME280;38968;47.696;17.540;2023-02-28T16:19:13;10135840.0;;;10.49;32.07324
53089;BME280;38968;47.696;17.540;2023-02-28T16:24:13;10135490.0;;;10.39;31.91602
53089;BME280;38968;47.696;17.540;2023-02-28T16:29:24;10136310.0;;;9.77;33.18555
53089;BME280;38968;47.696;17.540;2023-02-28T16:34:13;10136130.0;;;9.73;33.16992
53089;BME280;38968;47.696;17.540;2023-02-28T16:39:14;10136310.0;;;9.78;33.11719
53089;BME280;38968;47.696;17.540;2023-02-28T16:49:13;10137440.0;;;9.7;33.72168
53089;BME280;38968;47.696;17.540;2023-02-28T16:54:14;10137240.0;;;9.53;34.56055
53089;BME280;38968;47.696;17.540;2023-02-28T16:59:15;10137760.0;;;9.47;34.69434
53089;BME280;38968;47.696;17.540;2023-02-28T17:04:14;10139230.0;;;9.41;34.5625
53089;BME280;38968;47.696;17.540;2023-02-28T17:09:19;10139530.0;;;8.98;35.19531
53089;BME280;38968;47.696;17.540;2023-02-28T17:14:14;10140000.0;;;8.59;35.72656
53089;BME280;38968;47.696;17.540;2023-02-28T17:19:15;10139690.0;;;8.89;35.38281
53089;BME280;38968;47.696;17.540;2023-02-28T17:24:14;10140010.0;;;8.69;35.63184
53089;BME280;38968;47.696;17.540;2023-02-28T17:29:18;10140620.0;;;8.68;35.86035
53089;BME280;38968;47.696;17.540;2023-02-28T17:34:15;10141120.0;;;8.56;36.1377
53089;BME280;38968;47.696;17.540;2023-02-28T17:39:14;10140720.0;;;8.76;35.91309
53089;BME280;38968;47.696;17.540;2023-02-28T17:44:13;10140600.0;;;8.58;36.23047
53089;BME280;38968;47.696;17.540;2023-02-28T17:49:16;10140690.0;;;8.58;36.65625
53089;BME280;38968;47.696;17.540;2023-02-28T17:54:14;10140030.0;;;8.24;36.92578
53089;BME280;38968;47.696;17.540;2023-02-28T17:59:14;10140800.0;;;8.19;37.31152
53089;BME280;38968;47.696;17.540;2023-02-28T18:04:13;10140960.0;;;8.1;37.42969
53089;BME280;38968;47.696;17.540;2023-02-28T18:09:18;10141210.0;;;8.02;37.75488
53089;BME280;38968;47.696;17.540;2023-02-28T18:14:14;10141090.0;;;7.88;37.78906
53089;BME280;38968;47.696;17.540;2023-02-28T18:19:16;10140820.0;;;7.82;37.93262
53089;BME280;38968;47.696;17.540;2023-02-28T18:24:15;10139900.0;;;8.49;36.77441
53089;BME280;38968;47.696;17.540;2023-02-28T18:29:24;10140540.0;;;8.16;37.09082
53089;BME280;38968;47.696;17.540;2023-02-28T18:34:14;10141250.0;;;7.76;38.06543
53089;BME280;38968;47.696;17.540;2023-02-28T18:39:16;10142000.0;;;7.61;38.77344
53089;BME280;38968;47.696;17.540;2023-02-28T18:44:14;10140820.0;;;7.77;38.74219
53089;BME280;38968;47.696;17.540;2023-02-28T18:49:14;10140370.0;;;7.71;38.40527
53089;BME280;38968;47.696;17.540;2023-02-28T18:54:15;10141050.0;;;7.65;39.0625
53089;BME280;38968;47.696;17.540;2023-02-28T18:59:14;10141290.0;;;7.51;39.57715
53089;BME280;38968;47.696;17.540;2023-02-28T19:04:14;10141420.0;;;7.31;40.20996
53089;BME280;38968;47.696;17.540;2023-02-28T19:09:14;10141070.0;;;6.85;41.44727
53089;BME280;38968;47.696;17.540;2023-02-28T19:14:14;10140460.0;;;6.83;41.7998
53089;BME280;38968;47.696;17.540;2023-02-28T19:19:14;10141540.0;;;6.66;42.00098
53089;BME280;38968;47.696;17.540;2023-02-28T19:24:13;10141460.0;;;6.66;42.45605
53089;BME280;38968;47.696;17.540;2023-02-28T19:29:14;10141730.0;;;6.74;42.30469
53089;BME280;38968;47.696;17.540;2023-02-28T19:34:15;10141400.0;;;6.81;42.18555
53089;BME280;38968;47.696;17.540;2023-02-28T19:39:14;10141950.0;;;6.54;41.96582
53089;BME280;38968;47.696;17.540;2023-02-28T19:44:15;10142920.0;;;6.28;42.89746
53089;BME280;38968;47.696;17.540;2023-02-28T19:49:14;10142900.0;;;6.17;42.9668
53089;BME280;38968;47.696;17.540;2023-02-28T19:54:14;10143970.0;;;5.93;43.3877
53089;BME280;38968;47.696;17.540;2023-02-28T19:59:14;10143890.0;;;5.99;43.2793
53089;BME280;38968;47.696;17.540;2023-02-28T20:04:15;10143790.0;;;5.94;42.88672
53089;BME280;38968;47.696;17.540;2023-02-28T20:09:15;10144300.0;;;5.57;43.36328
53089;BME280;38968;47.696;17.540;2023-02-28T20:14:14;10143590.0;;;5.53;43.54102
53089;BME280;38968;47.696;17.540;2023-02-28T20:19:14;10143680.0;;;5.54;43.48438
53089;BME280;38968;47.696;17.540;2023-02-28T20:24:14;10143150.0;;;5.81;43.2041
53089;BME280;38968;47.696;17.540;2023-02-28T20:29:14;10143370.0;;;5.99;42.70898
53089;BME280;38968;47.696;17.540;2023-02-28T20:34:14;10143130.0;;;6.06;42.80859
53089;BME280;38968;47.696;17.540;2023-02-28T20:39:15;10143380.0;;;6;43.15527
53089;BME280;38968;47.696;17.540;2023-02-28T20:44:14;10142790.0;;;5.77;42.51758
53089;BME280;38968;47.696;17.540;2023-02-28T20:49:14;10143450.0;;;5.63;43.4707
53089;BME280;38968;47.696;17.540;2023-02-28T20:54:14;10143770.0;;;5.87;43.1084
53089;BME280;38968;47.696;17.540;2023-02-28T20:59:16;10143430.0;;;5.57;43.4082
53089;BME280;38968;47.696;17.540;2023-02-28T21:04:14;10143320.0;;;5.46;44.06738
53089;BME280;38968;47.696;17.540;2023-02-28T21:09:14;10143330.0;;;5.22;44.38379
53089;BME280;38968;47.696;17.540;2023-02-28T21:14:15;10142630.0;;;5.18;45.00586
53089;BME280;38968;47.696;17.540;2023-02-28T21:19:14;10142280.0;;;5.17;45.19824
53089;BME280;38968;47.696;17.540;2023-02-28T21:24:15;10142980.0;;;4.9;46.35059
53089;BME280;38968;47.696;17.540;2023-02-28T21:29:13;10141520.0;;;4.92;46.54492
53089;BME280;38968;47.696;17.540;2023-02-28T21:34:13;10142900.0;;;4.64;47.35449
53089;BME280;38968;47.696;17.540;2023-02-28T21:39:18;10142300.0;;;4.38;47.91504
53089;BME280;38968;47.696;17.540;2023-02-28T21:44:14;10142600.0;;;4.5;47.50977
53089;BME280;38968;47.696;17.540;2023-02-28T21:49:14;10142080.0;;;4.78;46.07617
53089;BME280;38968;47.696;17.540;2023-02-28T21:54:13;10142250.0;;;4.76;46.38086
53089;BME280;38968;47.696;17.540;2023-02-28T21:59:13;10142580.0;;;4.72;46.27441
53089;BME280;38968;47.696;17.540;2023-02-28T22:04:15;10143000.0;;;4.96;45.8916
53089;BME280;38968;47.696;17.540;2023-02-28T22:09:14;10142470.0;;;4.93;46.21777
53089;BME280;38968;47.696;17.540;2023-02-28T22:14:14;10142020.0;;;5.46;45.94434
53089;BME280;38968;47.696;17.540;2023-02-28T22:19:13;10142370.0;;;5.79;45.11523
53089;BME280;38968;47.696;17.540;2023-02-28T22:24:13;10142100.0;;;5.78;44.38574
53089;BME280;38968;47.696;17.540;2023-02-28T22:29:13;10141790.0;;;5.88;44.69141
53089;BME280;38968;47.696;17.540;2023-02-28T22:34:13;10141200.0;;;5.63;44.96289
53089;BME280;38968;47.696;17.540;2023-02-28T22:39:13;10140890.0;;;5.75;45.88477
53089;BME280;38968;47.696;17.540;2023-02-28T22:44:13;10141400.0;;;5.44;46.93066
53089;BME280;38968;47.696;17.540;2023-02-28T22:49:13;10141120.0;;;5.66;46.36523
53089;BME280;38968;47.696;17.540;2023-02-28T22:54:13;10141140.0;;;5.42;46.28223
53089;BME280;38968;47.696;17.540;2023-02-28T22:59:14;10140540.0;;;5.45;46.01172
53089;BME280;38968;47.696;17.540;2023-02-28T23:04:13;10142640.0;;;5.22;46.22656
53089;BME280;38968;47.696;17.540;2023-02-28T23:09:15;10141560.0;;;4.48;48.9248
53089;BME280;38968;47.696;17.540;2023-02-28T23:14:19;10140380.0;;;4.88;48.7207
53089;BME280;38968;47.696;17.540;2023-02-28T23:19:21;10140900.0;;;4.87;48.50293
53089;BME280;38968;47.696;17.540;2023-02-28T23:24:16;10141500.0;;;5.16;47.53613
53089;BME280;38968;47.696;17.540;2023-02-28T23:29:14;10142010.0;;;5.43;46.93066
53089;BME280;38968;47.696;17.540;2023-02-28T23:34:14;10141390.0;;;5.07;47.3916
53089;BME280;38968;47.696;17.540;2023-02-28T23:39:15;10142460.0;;;4.88;46.67871
53089;BME280;38968;47.696;17.540;2023-02-28T23:44:13;10142560.0;;;4.66;47.33496
53089;BME280;38968;47.696;17.540;2023-02-28T23:49:14;10142260.0;;;4.81;46.97656
53089;BME280;38968;47.696;17.540;2023-02-28T23:54:13;10142440.0;;;4.82;46.58008
53089;BME280;38968;47.696;17.540;2023-02-28T23:59:13;10141770.0;;;5.2;46.05371
